Latest Weather Observations for Little Bay

IDN60801

Issued at 2:33 pm EDT Friday 6 March 2015 (issued every 30 minutes, with the page automatically refreshed every 10 minutes)

About weather observations | Map of weather stations | Latest weather observations for NSW | Other Formats
Station Details ID: 066051 Name: LITTLE BAY (THE COAST GOLF CLUB) Lat: -33.98 Lon: 151.25 Height: 22.0 m
Data from the previous 72 hours. | See also: Recent months for locations in New South Wales
Date/Time
EDT
Temp
°C
App
Temp
°C
Dew
Point
Rel
Hum
%
Delta-T
°C
Wind Press
QNH
hPa
Press
MSL
hPa
Rain
since 9 am
mm
Dir
 
Spd
km/h
Gust
km/h
Spd
kts
Gust
kts
06/02:30pm - - - - - WSW 17 26 9 14 - - -
06/02:00pm - - - - - W 17 24 9 13 - - -
06/01:30pm - - - - - W 17 24 9 13 - - -
06/01:00pm - - - - - W 19 32 10 17 - - -
06/12:30pm - - - - - W 19 30 10 16 - - -
06/12:00pm - - - - - W 22 33 12 18 - - -
06/11:30am - - - - - W 22 33 12 18 - - -
06/11:00am - - - - - W 24 39 13 21 - - -
06/10:30am - - - - - W 24 39 13 21 - - -
06/10:00am - - - - - W 22 37 12 20 - - -
06/09:30am - - - - - WNW 15 24 8 13 - - -
06/09:00am - - - - - NW 19 30 10 16 - - -
06/08:30am - - - - - WNW 11 22 6 12 - - -
06/08:00am - - - - - NW 13 20 7 11 - - -
06/07:30am - - - - - NW 9 17 5 9 - - -
06/07:00am - - - - - NW 13 20 7 11 - - -
06/06:30am - - - - - NW 9 17 5 9 - - -
06/06:00am - - - - - NNW 7 13 4 7 - - -
06/05:30am - - - - - NW 6 9 3 5 - - -
06/05:00am - - - - - NNW 6 7 3 4 - - -
06/04:30am - - - - - NW 6 9 3 5 - - -
06/04:00am - - - - - WNW 7 13 4 7 - - -
06/03:30am - - - - - WNW 6 9 3 5 - - -
06/03:00am - - - - - WNW 7 9 4 5 - - -
06/02:30am - - - - - WNW 6 9 3 5 - - -
06/02:00am - - - - - WNW 9 11 5 6 - - -
06/01:30am - - - - - W 9 13 5 7 - - -
06/01:00am - - - - - W 9 13 5 7 - - -
06/12:30am - - - - - W 7 11 4 6 - - -
06/12:00am - - - - - WSW 7 13 4 7 - - -
 
Date/Time
EDT
Temp
°C
App
Temp
°C
Dew
Point
Rel
Hum
%
Delta-T
°C
Wind Press
QNH
hPa
Press
MSL
hPa
Rain
since 9 am
mm
Dir
 
Spd
km/h
Gust
km/h
Spd
kts
Gust
kts
05/11:30pm - - - - - S 6 7 3 4 - - -
05/11:00pm - - - - - S 6 9 3 5 - - -
05/10:30pm - - - - - S 11 15 6 8 - - -
05/10:00pm - - - - - SSE 13 20 7 11 - - -
05/09:30pm - - - - - SSE 20 28 11 15 - - -
05/09:00pm - - - - - SSE 22 32 12 17 - - -
05/08:30pm - - - - - SSE 22 30 12 16 - - -
05/08:00pm - - - - - SSE 26 37 14 20 - - -
05/07:30pm - - - - - SSE 26 37 14 20 - - -
05/07:00pm - - - - - SSE 28 37 15 20 - - -
05/06:30pm - - - - - SSE 26 35 14 19 - - -
05/06:00pm - - - - - SSE 30 41 16 22 - - -
05/05:30pm - - - - - SSE 35 50 19 27 - - -
05/05:00pm - - - - - SSE 35 46 19 25 - - -
05/04:30pm - - - - - SSE 33 46 18 25 - - -
05/04:00pm - - - - - SSE 32 43 17 23 - - -
05/03:30pm - - - - - SSE 32 43 17 23 - - -
05/03:00pm - - - - - SSE 32 44 17 24 - - -
05/02:30pm - - - - - SSE 33 41 18 22 - - -
05/02:00pm - - - - - SSE 35 48 19 26 - - -
05/01:30pm - - - - - SSE 37 50 20 27 - - -
05/01:04pm - - - - - S 32 48 17 26 - - -
05/01:00pm - - - - - SSW 26 37 14 20 - - -
05/12:30pm - - - - - WSW 22 32 12 17 - - -
05/12:00pm - - - - - WSW 22 35 12 19 - - -
05/11:30am - - - - - WSW 22 35 12 19 - - -
05/11:00am - - - - - WSW 22 41 12 22 - - -
05/10:30am - - - - - WSW 15 24 8 13 - - -
05/10:00am - - - - - WSW 15 24 8 13 - - -
05/09:30am - - - - - WSW 17 24 9 13 - - -
05/09:00am - - - - - W 15 24 8 13 - - -
05/08:30am - - - - - WSW 7 11 4 6 - - -
05/08:00am - - - - - WSW 7 11 4 6 - - -
05/07:30am - - - - - SW 9 13 5 7 - - -
05/07:00am - - - - - WSW 4 7 2 4 - - -
05/06:30am - - - - - W 7 9 4 5 - - -
05/06:00am - - - - - WNW 6 9 3 5 - - -
05/05:30am - - - - - WNW 7 11 4 6 - - -
05/05:00am - - - - - WNW 9 13 5 7 - - -
05/04:30am - - - - - WNW 11 13 6 7 - - -
05/04:00am - - - - - WNW 11 15 6 8 - - -
05/03:30am - - - - - WNW 9 13 5 7 - - -
05/03:00am - - - - - WNW 9 13 5 7 - - -
05/02:30am - - - - - WNW 9 11 5 6 - - -
05/02:00am - - - - - NW 6 9 3 5 - - -
05/01:30am - - - - - WNW 4 6 2 3 - - -
05/01:00am - - - - - NW 2 2 1 1 - - -
05/12:30am - - - - - CALM 0 0 0 0 - - -
05/12:00am - - - - - CALM 0 0 0 0 - - -
 
Date/Time
EDT
Temp
°C
App
Temp
°C
Dew
Point
Rel
Hum
%
Delta-T
°C
Wind Press
QNH
hPa
Press
MSL
hPa
Rain
since 9 am
mm
Dir
 
Spd
km/h
Gust
km/h
Spd
kts
Gust
kts
04/11:30pm - - - - - WNW 4 6 2 3 - - -
04/11:00pm - - - - - N 4 6 2 3 - - -
04/10:30pm - - - - - NNE 6 6 3 3 - - -
04/10:00pm - - - - - NNW 7 9 4 5 - - -
04/09:30pm - - - - - N 9 13 5 7 - - -
04/09:00pm - - - - - NNE 11 15 6 8 - - -
04/08:30pm - - - - - NNE 11 15 6 8 - - -
04/08:00pm - - - - - NNE 11 15 6 8 - - -
04/07:30pm - - - - - NNE 13 17 7 9 - - -
04/07:00pm - - - - - NNE 15 20 8 11 - - -
04/06:30pm - - - - - NE 13 17 7 9 - - -
04/06:00pm - - - - - NE 11 15 6 8 - - -
04/05:30pm - - - - - ENE 9 13 5 7 - - -
04/05:00pm - - - - - ENE 11 15 6 8 - - -
04/04:30pm - - - - - ENE 11 17 6 9 - - -
04/04:00pm - - - - - ENE 13 19 7 10 - - -
04/03:30pm - - - - - ENE 15 19 8 10 - - -
04/03:00pm - - - - - E 13 15 7 8 - - -
04/02:30pm - - - - - ESE 9 13 5 7 - - -
04/02:00pm - - - - - SE 11 13 6 7 - - -
04/01:30pm - - - - - SSE 11 13 6 7 - - -
04/01:00pm - - - - - SE 11 15 6 8 - - -
04/12:30pm - - - - - SSE 9 15 5 8 - - -
04/12:00pm - - - - - S 15 19 8 10 - - -
04/11:30am - - - - - S 15 20 8 11 - - -
04/11:00am - - - - - S 19 24 10 13 - - -
04/10:30am - - - - - SSW 20 28 11 15 - - -
04/10:00am - - - - - SSW 20 26 11 14 - - -
04/09:30am - - - - - SSW 20 26 11 14 - - -
04/09:00am - - - - - S 17 20 9 11 - - -
04/08:30am - - - - - S 15 20 8 11 - - -
04/08:00am - - - - - S 13 20 7 11 - - -
04/07:30am - - - - - SSW 17 20 9 11 - - -
04/07:00am - - - - - S 17 20 9 11 - - -
04/06:30am - - - - - SSW 17 24 9 13 - - -
04/06:00am - - - - - S 20 28 11 15 - - -
04/05:30am - - - - - SSW 20 28 11 15 - - -
04/05:00am - - - - - SSW 19 28 10 15 - - -
04/04:30am - - - - - SSW 17 26 9 14 - - -
04/04:00am - - - - - SSW 15 22 8 12 - - -
04/03:30am - - - - - SSW 15 22 8 12 - - -
04/03:00am - - - - - SSW 15 20 8 11 - - -
04/02:30am - - - - - SSW 15 24 8 13 - - -
04/02:00am - - - - - SSW 11 17 6 9 - - -
04/01:30am - - - - - SSW 13 20 7 11 - - -
04/01:00am - - - - - SSW 13 19 7 10 - - -
04/12:30am - - - - - S 9 13 5 7 - - -
04/12:00am - - - - - S 4 6 2 3 - - -
 
Date/Time
EDT
Temp
°C
App
Temp
°C
Dew
Point
Rel
Hum
%
Delta-T
°C
Wind Press
QNH
hPa
Press
MSL
hPa
Rain
since 9 am
mm
Dir
 
Spd
km/h
Gust
km/h
Spd
kts
Gust
kts
03/11:30pm - - - - - CALM 0 0 0 0 - - -
03/11:00pm - - - - - CALM 0 0 0 0 - - -
03/10:30pm - - - - - CALM 0 0 0 0 - - -
03/10:00pm - - - - - NNE 4 7 2 4 - - -
03/09:30pm - - - - - NE 6 9 3 5 - - -
03/09:00pm - - - - - NE 7 9 4 5 - - -
03/08:30pm - - - - - NNE 11 15 6 8 - - -
03/08:00pm - - - - - NNE 13 17 7 9 - - -
03/07:30pm - - - - - NNE 13 17 7 9 - - -
03/07:00pm - - - - - NNE 17 22 9 12 - - -
03/06:30pm - - - - - NNE 17 22 9 12 - - -
03/06:00pm - - - - - NNE 19 24 10 13 - - -
03/05:30pm - - - - - NNE 22 30 12 16 - - -
03/05:00pm - - - - - NE 24 32 13 17 - - -
03/04:30pm - - - - - NE 22 30 12 16 - - -
03/04:00pm - - - - - NE 20 30 11 16 - - -
03/03:30pm - - - - - NE 20 28 11 15 - - -
03/03:00pm - - - - - NE 22 30 12 16 - - -

Other Formats:

Comma delimited format used in spreadsheet applications
http://www.bom.gov.au/fwo/IDN60801/IDN60801.94780.axf

JavaScript Object Notation format (JSON) in row-major order
http://www.bom.gov.au/fwo/IDN60801/IDN60801.94780.json